createdAt,value
2018-11-05T00:00:23.437Z,0
2018-11-05T00:01:33.388Z,0
2018-11-05T00:02:43.091Z,0
2018-11-05T00:03:52.785Z,0
2018-11-05T00:05:02.742Z,0
2018-11-05T00:06:12.694Z,0
2018-11-05T00:07:22.648Z,0
2018-11-05T00:08:32.602Z,0
2018-11-05T00:09:42.040Z,0
2018-11-05T00:10:51.991Z,0
2018-11-05T00:12:01.427Z,0
2018-11-05T00:13:11.141Z,0
2018-11-05T00:14:20.593Z,0
2018-11-05T00:15:30.549Z,0
2018-11-05T00:16:40.514Z,0
2018-11-05T00:17:49.951Z,0
2018-11-05T00:18:59.661Z,0
2018-11-05T00:20:09.640Z,0
2018-11-05T00:21:19.342Z,0
2018-11-05T00:22:29.017Z,0
2018-11-05T00:23:38.707Z,0
2018-11-05T00:24:48.652Z,0
2018-11-05T00:25:57.585Z,0
2018-11-05T00:27:06.506Z,0
2018-11-05T00:28:16.218Z,0
2018-11-05T00:29:25.653Z,0
2018-11-05T00:30:35.339Z,0
2018-11-05T00:31:44.754Z,0
2018-11-05T00:32:54.200Z,0
2018-11-05T00:34:04.153Z,0
2018-11-05T00:35:13.862Z,0
2018-11-05T00:36:23.289Z,0
2018-11-05T00:37:32.964Z,0
2018-11-05T00:38:42.659Z,0
2018-11-05T00:39:52.353Z,0
2018-11-05T00:41:02.036Z,0
2018-11-05T00:42:11.991Z,0
2018-11-05T00:43:21.950Z,0
2018-11-05T00:44:31.891Z,0
2018-11-05T00:45:41.992Z,0
2018-11-05T00:46:51.728Z,0
2018-11-05T00:48:01.408Z,0
2018-11-05T00:49:11.098Z,0
2018-11-05T00:50:20.782Z,0
2018-11-05T00:51:29.975Z,0
2018-11-05T00:52:39.398Z,0
2018-11-05T00:53:49.367Z,0
2018-11-05T00:54:58.281Z,0
2018-11-05T00:56:08.235Z,0
2018-11-05T00:57:17.921Z,0
2018-11-05T00:58:27.382Z,0
2018-11-05T00:59:37.405Z,0
2018-11-05T01:00:47.088Z,0
2018-11-05T01:01:57.035Z,0
2018-11-05T01:03:06.733Z,0
2018-11-05T01:04:17.198Z,0
2018-11-05T01:05:26.886Z,0
2018-11-05T01:06:36.578Z,0
2018-11-05T01:07:46.005Z,0
2018-11-05T01:08:55.957Z,0
2018-11-05T01:10:05.660Z,0
2018-11-05T01:11:15.101Z,0
2018-11-05T01:12:24.800Z,0
2018-11-05T01:13:34.757Z,0
2018-11-05T01:14:44.431Z,0
2018-11-05T01:15:54.390Z,0
2018-11-05T01:17:04.330Z,0
2018-11-05T01:18:14.012Z,0
2018-11-05T01:19:23.438Z,0
2018-11-05T01:20:33.372Z,0
2018-11-05T01:21:43.084Z,0
2018-11-05T01:22:53.025Z,0
2018-11-05T01:24:02.963Z,0
2018-11-05T01:25:12.396Z,0
2018-11-05T01:26:22.358Z,0
2018-11-05T01:27:31.794Z,0
2018-11-05T01:28:41.736Z,0
2018-11-05T01:29:51.690Z,0
2018-11-05T01:31:01.633Z,0
2018-11-05T01:32:11.329Z,0
2018-11-05T01:33:21.024Z,0
2018-11-05T01:34:30.971Z,0
2018-11-05T01:35:40.667Z,0
2018-11-05T01:36:50.083Z,0
2018-11-05T01:37:59.791Z,0
2018-11-05T01:39:09.475Z,0
2018-11-05T01:40:18.905Z,0
2018-11-05T01:41:28.338Z,0
2018-11-05T01:42:37.973Z,0
2018-11-05T01:43:47.673Z,0
2018-11-05T01:44:57.625Z,0
2018-11-05T01:46:07.575Z,0
2018-11-05T01:47:17.262Z,0
2018-11-05T01:48:26.692Z,0
2018-11-05T01:49:36.665Z,0
2018-11-05T01:50:46.357Z,0
2018-11-05T01:51:56.302Z,0
2018-11-05T01:53:05.737Z,0
2018-11-05T01:54:15.427Z,0
2018-11-05T01:55:25.360Z,0
2018-11-05T01:56:35.307Z,0
2018-11-05T01:57:44.988Z,0
2018-11-05T01:58:54.935Z,0
2018-11-05T02:00:04.884Z,0
2018-11-05T02:01:14.836Z,0
2018-11-05T02:02:24.535Z,0
2018-11-05T02:03:34.230Z,0
2018-11-05T02:04:43.666Z,0
2018-11-05T02:05:53.359Z,0
2018-11-05T02:07:03.305Z,0
2018-11-05T02:08:12.993Z,0
2018-11-05T02:09:22.953Z,0
2018-11-05T02:10:33.415Z,0
2018-11-05T02:11:43.105Z,0
2018-11-05T02:12:53.060Z,0
2018-11-05T02:14:03.014Z,0
2018-11-05T02:15:12.520Z,0
2018-11-05T02:16:22.686Z,0
2018-11-05T02:17:32.630Z,0
2018-11-05T02:18:42.317Z,0
2018-11-05T02:19:52.007Z,0
2018-11-05T02:21:01.959Z,0
2018-11-05T02:22:11.920Z,0
2018-11-05T02:23:21.864Z,0
2018-11-05T02:24:31.540Z,0
2018-11-05T02:25:41.226Z,0
2018-11-05T02:26:50.959Z,0
2018-11-05T02:28:00.645Z,0
2018-11-05T02:29:10.605Z,0
2018-11-05T02:30:20.318Z,0
2018-11-05T02:31:30.272Z,0
2018-11-05T02:32:39.983Z,0
2018-11-05T02:33:50.090Z,0
2018-11-05T02:35:00.071Z,0
2018-11-05T02:36:09.511Z,0
2018-11-05T02:37:19.466Z,0
2018-11-05T02:38:29.416Z,0
2018-11-05T02:39:39.357Z,0
2018-11-05T02:40:49.054Z,0
2018-11-05T02:41:58.501Z,0
2018-11-05T02:43:08.198Z,0
2018-11-05T02:44:17.903Z,0
2018-11-05T02:45:27.857Z,0
2018-11-05T02:46:37.812Z,0
2018-11-05T02:47:47.252Z,0
2018-11-05T02:48:57.194Z,0
2018-11-05T02:50:06.887Z,0
2018-11-05T02:51:16.835Z,0
2018-11-05T02:52:26.286Z,0
2018-11-05T02:53:35.977Z,0
2018-11-05T02:54:45.926Z,0
2018-11-05T02:55:55.371Z,0
2018-11-05T02:57:04.802Z,0
2018-11-05T02:58:14.482Z,0
2018-11-05T02:59:24.436Z,0
2018-11-05T03:00:34.132Z,0
2018-11-05T03:01:43.572Z,0
2018-11-05T03:02:53.268Z,0
2018-11-05T03:04:03.224Z,0
2018-11-05T03:05:13.186Z,0
2018-11-05T03:06:23.153Z,0
2018-11-05T03:07:33.090Z,0
2018-11-05T03:08:43.053Z,0
2018-11-05T03:09:53.001Z,0
2018-11-05T03:11:02.455Z,0
2018-11-05T03:12:11.886Z,0
2018-11-05T03:13:21.837Z,0
2018-11-05T03:14:31.798Z,0
2018-11-05T03:15:41.234Z,0
2018-11-05T03:16:50.655Z,0
2018-11-05T03:18:00.371Z,0
2018-11-05T03:19:10.326Z,0
2018-11-05T03:20:19.775Z,0
2018-11-05T03:21:29.459Z,0
2018-11-05T03:22:38.893Z,0
2018-11-05T03:23:48.842Z,0
2018-11-05T03:24:58.784Z,0
2018-11-05T03:26:08.744Z,0
2018-11-05T03:27:18.173Z,0
2018-11-05T03:28:27.912Z,0
2018-11-05T03:29:37.856Z,0
2018-11-05T03:30:47.570Z,0
2018-11-05T03:31:57.544Z,0
2018-11-05T03:33:07.493Z,0
2018-11-05T03:34:17.192Z,0
2018-11-05T03:35:27.138Z,0
2018-11-05T03:36:37.550Z,0
2018-11-05T03:37:47.502Z,0
2018-11-05T03:38:56.931Z,0
2018-11-05T03:40:06.676Z,0
2018-11-05T03:41:16.107Z,0
2018-11-05T03:42:25.798Z,0
2018-11-05T03:43:35.548Z,0
2018-11-05T03:44:44.974Z,0
2018-11-05T03:45:54.666Z,0
2018-11-05T03:47:04.611Z,0
2018-11-05T03:48:14.538Z,0
2018-11-05T03:49:23.721Z,0
2018-11-05T03:50:33.671Z,0
2018-11-05T03:51:43.623Z,0
2018-11-05T03:52:53.067Z,0
2018-11-05T03:54:03.015Z,0
2018-11-05T03:55:12.444Z,0
2018-11-05T03:56:23.193Z,0
2018-11-05T03:57:33.287Z,0
2018-11-05T03:58:43.009Z,0
2018-11-05T03:59:52.704Z,0
2018-11-05T04:01:02.406Z,0
2018-11-05T04:02:12.372Z,0
2018-11-05T04:03:22.118Z,0
2018-11-05T04:04:32.180Z,0
2018-11-05T04:05:42.138Z,0
2018-11-05T04:06:51.830Z,0
2018-11-05T04:08:01.771Z,0
2018-11-05T04:09:11.719Z,0
2018-11-05T04:10:21.403Z,0
2018-11-05T04:11:31.105Z,0
2018-11-05T04:12:40.809Z,0
2018-11-05T04:13:49.989Z,0
2018-11-05T04:14:59.686Z,0
2018-11-05T04:16:10.239Z,0
2018-11-05T04:17:19.765Z,0
2018-11-05T04:18:29.465Z,0
2018-11-05T04:19:39.425Z,0
2018-11-05T04:20:49.126Z,0
2018-11-05T04:21:59.080Z,0
2018-11-05T04:23:08.778Z,0
2018-11-05T04:24:18.486Z,0
2018-11-05T04:25:28.165Z,0
2018-11-05T04:26:37.593Z,0
2018-11-05T04:27:47.911Z,0
2018-11-05T04:28:57.632Z,0
2018-11-05T04:30:06.804Z,0
2018-11-05T04:31:16.737Z,0
2018-11-05T04:32:26.457Z,0
2018-11-05T04:33:35.903Z,0
2018-11-05T04:34:46.003Z,0
2018-11-05T04:35:55.960Z,0
2018-11-05T04:37:05.911Z,0
2018-11-05T04:38:15.598Z,0
2018-11-05T04:39:25.576Z,0
2018-11-05T04:40:35.337Z,0
2018-11-05T04:41:45.284Z,0
2018-11-05T04:42:55.235Z,0
2018-11-05T04:44:04.921Z,0
2018-11-05T04:45:14.613Z,0
2018-11-05T04:46:24.316Z,0
2018-11-05T04:47:34.281Z,0
2018-11-05T04:48:43.974Z,0
2018-11-05T04:49:53.664Z,0
2018-11-05T04:51:03.362Z,0
2018-11-05T04:52:13.071Z,0
2018-11-05T04:53:22.775Z,0
2018-11-05T04:54:32.466Z,0
2018-11-05T04:55:42.165Z,0
2018-11-05T04:56:51.843Z,0
2018-11-05T04:58:01.789Z,0
2018-11-05T04:59:11.734Z,0
2018-11-05T05:00:21.165Z,0
2018-11-05T05:01:30.849Z,0
2018-11-05T05:02:40.813Z,0
2018-11-05T05:03:50.507Z,0
2018-11-05T05:05:00.454Z,0
2018-11-05T05:06:10.173Z,0
2018-11-05T05:07:19.875Z,0
2018-11-05T05:08:29.829Z,0
2018-11-05T05:09:39.775Z,0
2018-11-05T05:10:49.207Z,0
2018-11-05T05:11:59.144Z,0
2018-11-05T05:13:08.593Z,0
2018-11-05T05:14:18.288Z,0
2018-11-05T05:15:27.987Z,0
2018-11-05T05:16:37.941Z,0
2018-11-05T05:17:47.630Z,0
2018-11-05T05:18:57.320Z,0
2018-11-05T05:20:07.286Z,0
2018-11-05T05:21:17.252Z,0
2018-11-05T05:22:27.392Z,0
2018-11-05T05:23:37.437Z,0
2018-11-05T05:24:47.376Z,0
2018-11-05T05:25:57.078Z,0
2018-11-05T05:27:06.771Z,0
2018-11-05T05:28:15.701Z,0
2018-11-05T05:29:25.139Z,0
2018-11-05T05:30:35.117Z,0
2018-11-05T05:31:44.801Z,0
2018-11-05T05:32:54.656Z,0
2018-11-05T05:34:04.329Z,0
2018-11-05T05:35:13.497Z,0
2018-11-05T05:36:23.461Z,0
2018-11-05T05:37:33.419Z,0
2018-11-05T05:38:43.383Z,0
2018-11-05T05:39:52.836Z,0
2018-11-05T05:41:03.675Z,0
2018-11-05T05:42:13.645Z,0
2018-11-05T05:43:23.631Z,0
2018-11-05T05:44:33.326Z,0
2018-11-05T05:45:43.035Z,0
2018-11-05T05:46:52.472Z,0
2018-11-05T05:48:02.433Z,0
2018-11-05T05:49:12.385Z,0
2018-11-05T05:50:23.155Z,0
2018-11-05T05:51:33.124Z,0
2018-11-05T05:52:42.846Z,0
2018-11-05T05:53:52.608Z,0
2018-11-05T05:55:02.606Z,0
2018-11-05T05:56:12.305Z,0
2018-11-05T05:57:22.263Z,0
2018-11-05T05:58:31.706Z,0
2018-11-05T05:59:41.666Z,0
2018-11-05T06:00:51.111Z,0
2018-11-05T06:02:00.551Z,0
2018-11-05T06:03:10.527Z,0
2018-11-05T06:04:20.236Z,0
2018-11-05T06:05:30.188Z,0
2018-11-05T06:06:39.249Z,0
2018-11-05T06:07:49.236Z,0
2018-11-05T06:08:58.944Z,5
2018-11-05T06:10:08.627Z,5
2018-11-05T06:11:18.311Z,5
2018-11-05T06:12:28.015Z,5
2018-11-05T06:13:37.439Z,5
2018-11-05T06:14:47.131Z,5
2018-11-05T06:15:56.518Z,5
2018-11-05T06:17:05.931Z,5
2018-11-05T06:18:15.881Z,5
2018-11-05T06:19:25.838Z,10
2018-11-05T06:20:35.010Z,10
2018-11-05T06:21:45.211Z,10
2018-11-05T06:22:54.649Z,10
2018-11-05T06:24:04.339Z,10
2018-11-05T06:25:14.041Z,10
2018-11-05T06:26:24.053Z,15
2018-11-05T06:27:34.016Z,15
2018-11-05T06:28:44.472Z,15
2018-11-05T06:29:53.992Z,15
2018-11-05T06:31:03.438Z,20
2018-11-05T06:32:13.366Z,20
2018-11-05T06:33:24.095Z,25
2018-11-05T06:34:33.547Z,25
2018-11-05T06:35:43.508Z,25
2018-11-05T06:36:53.468Z,25
2018-11-05T06:38:03.183Z,25
2018-11-05T06:39:13.136Z,25
2018-11-05T06:40:23.163Z,25
2018-11-05T06:41:33.303Z,25
2018-11-05T06:42:43.450Z,25
2018-11-05T06:43:53.137Z,25
2018-11-05T06:45:03.422Z,25
2018-11-05T06:46:13.506Z,25
2018-11-05T06:47:22.931Z,25
2018-11-05T06:48:32.374Z,25
2018-11-05T06:49:42.069Z,25
2018-11-05T06:50:51.777Z,30
2018-11-05T06:52:01.474Z,30
2018-11-05T06:53:11.596Z,30
2018-11-05T06:54:21.048Z,35
2018-11-05T06:55:30.740Z,40
2018-11-05T06:56:40.687Z,40
2018-11-05T06:57:51.549Z,50
2018-11-05T06:59:01.579Z,55
2018-11-05T07:00:11.016Z,55
2018-11-05T07:01:20.720Z,55
2018-11-05T07:02:30.632Z,60
2018-11-05T07:03:40.427Z,60
2018-11-05T07:04:50.125Z,70
2018-11-05T07:06:00.618Z,70
2018-11-05T07:07:10.748Z,70
2018-11-05T07:08:20.683Z,75
2018-11-05T07:09:30.387Z,65
2018-11-05T07:10:40.087Z,70
2018-11-05T07:11:50.080Z,65
2018-11-05T07:13:00.037Z,65
2018-11-05T07:14:10.019Z,65
2018-11-05T07:15:19.480Z,65
2018-11-05T07:16:29.186Z,70
2018-11-05T07:17:39.146Z,70
2018-11-05T07:18:49.930Z,75
2018-11-05T07:19:59.988Z,75
2018-11-05T07:21:09.958Z,75
2018-11-05T07:22:19.671Z,80
2018-11-05T07:23:29.162Z,70
2018-11-05T07:24:39.115Z,75
2018-11-05T07:25:49.060Z,90
2018-11-05T07:26:58.517Z,100
2018-11-05T07:28:07.685Z,100
2018-11-05T07:29:17.185Z,95
2018-11-05T07:30:26.397Z,95
2018-11-05T07:31:36.400Z,105
2018-11-05T07:32:46.392Z,120
2018-11-05T07:33:55.960Z,130
2018-11-05T07:35:05.887Z,130
2018-11-05T07:36:15.850Z,120
2018-11-05T07:37:25.079Z,135
2018-11-05T07:38:35.041Z,140
2018-11-05T07:39:44.748Z,145
2018-11-05T07:40:54.188Z,165
2018-11-05T07:42:04.162Z,180
2018-11-05T07:43:13.446Z,185
2018-11-05T07:44:23.413Z,205
2018-11-05T07:45:33.125Z,240
2018-11-05T07:46:42.865Z,240
2018-11-05T07:47:52.611Z,225
2018-11-05T07:49:02.326Z,205
2018-11-05T07:50:12.438Z,205
2018-11-05T07:51:22.193Z,195
2018-11-05T07:52:31.907Z,190
2018-11-05T07:53:41.357Z,170
2018-11-05T07:54:50.784Z,160
2018-11-05T07:56:00.637Z,170
2018-11-05T07:57:10.353Z,210
2018-11-05T07:58:19.792Z,185
2018-11-05T07:59:29.731Z,180
2018-11-05T08:00:39.442Z,185
2018-11-05T08:01:49.151Z,195
2018-11-05T08:02:59.104Z,210
2018-11-05T08:04:09.169Z,205
2018-11-05T08:05:19.133Z,195
2018-11-05T08:06:28.594Z,195
2018-11-05T08:07:38.298Z,195
2018-11-05T08:08:47.761Z,225
2018-11-05T08:09:57.716Z,190
2018-11-05T08:11:07.152Z,185
2018-11-05T08:12:16.856Z,170
2018-11-05T08:13:26.558Z,160
2018-11-05T08:14:36.591Z,155
2018-11-05T08:15:46.571Z,150
2018-11-05T08:16:56.265Z,170
2018-11-05T08:18:06.249Z,160
2018-11-05T08:19:16.213Z,165
2018-11-05T08:20:26.212Z,190
2018-11-05T08:21:35.653Z,205
2018-11-05T08:22:45.141Z,220
2018-11-05T08:23:54.863Z,245
2018-11-05T08:25:04.574Z,285
2018-11-05T08:26:14.232Z,275
2018-11-05T08:27:24.194Z,300
2018-11-05T08:28:33.944Z,265
2018-11-05T08:29:43.637Z,230
2018-11-05T08:30:53.618Z,245
2018-11-05T08:32:03.613Z,260
2018-11-05T08:33:13.345Z,265
2018-11-05T08:34:23.160Z,315
2018-11-05T08:35:33.184Z,295
2018-11-05T08:36:42.654Z,335
2018-11-05T08:37:52.352Z,335
2018-11-05T08:39:02.317Z,330
2018-11-05T08:40:12.598Z,315
2018-11-05T08:41:22.241Z,340
2018-11-05T08:42:31.707Z,315
2018-11-05T08:43:41.673Z,335
2018-11-05T08:44:51.426Z,330
2018-11-05T08:46:01.389Z,295
2018-11-05T08:47:11.282Z,315
2018-11-05T08:48:20.990Z,390
2018-11-05T08:49:30.443Z,320
2018-11-05T08:50:40.275Z,305
2018-11-05T08:51:51.732Z,270
2018-11-05T08:53:01.774Z,335
2018-11-05T08:54:11.542Z,295
2018-11-05T08:55:21.323Z,280
2018-11-05T08:56:31.018Z,315
2018-11-05T08:57:40.438Z,280
2018-11-05T08:58:49.840Z,275
2018-11-05T08:59:59.292Z,320
2018-11-05T09:01:09.434Z,350
2018-11-05T09:02:18.953Z,420
2018-11-05T09:03:28.646Z,380
2018-11-05T09:04:38.722Z,435
2018-11-05T09:05:48.184Z,380
2018-11-05T09:06:57.882Z,400
2018-11-05T09:08:07.698Z,405
2018-11-05T09:09:17.697Z,395
2018-11-05T09:10:28.802Z,360
2018-11-05T09:11:41.836Z,350
2018-11-05T09:12:51.581Z,350
2018-11-05T09:14:01.299Z,345
2018-11-05T09:15:11.032Z,405
2018-11-05T09:16:21.536Z,450
2018-11-05T09:17:31.373Z,600
2018-11-05T09:18:41.431Z,675
2018-11-05T09:19:50.874Z,475
2018-11-05T09:21:01.161Z,365
2018-11-05T09:22:11.051Z,345
2018-11-05T09:23:21.277Z,345
2018-11-05T09:24:30.719Z,350
2018-11-05T09:25:40.459Z,385
2018-11-05T09:26:49.909Z,405
2018-11-05T09:27:59.484Z,520
2018-11-05T09:29:08.483Z,650
2018-11-05T09:30:18.492Z,645
2018-11-05T09:31:28.456Z,610
2018-11-05T09:32:37.905Z,730
2018-11-05T09:33:47.380Z,715
2018-11-05T09:34:57.092Z,725
2018-11-05T09:36:07.057Z,905
2018-11-05T09:37:16.301Z,1070
2018-11-05T09:38:25.736Z,1070
2018-11-05T09:39:35.716Z,885
2018-11-05T09:40:45.440Z,525
2018-11-05T09:41:55.151Z,410
2018-11-05T09:43:05.638Z,650
2018-11-05T09:44:15.331Z,1075
2018-11-05T09:45:25.032Z,1140
2018-11-05T09:46:35.018Z,1130
2018-11-05T09:47:45.001Z,1170
2018-11-05T09:48:54.725Z,885
2018-11-05T09:50:04.449Z,690
2018-11-05T09:51:14.220Z,630
2018-11-05T09:52:24.045Z,775
2018-11-05T09:53:34.016Z,930
2018-11-05T09:54:43.719Z,1015
2018-11-05T09:55:53.210Z,1025
2018-11-05T09:57:03.144Z,1135
2018-11-05T09:58:12.600Z,1060
2018-11-05T09:59:22.548Z,1035
2018-11-05T10:00:32.276Z,720
2018-11-05T10:01:42.260Z,525
2018-11-05T10:02:52.764Z,470
2018-11-05T10:04:03.295Z,465
2018-11-05T10:05:13.760Z,510
2018-11-05T10:06:23.874Z,635
2018-11-05T10:07:33.595Z,620
2018-11-05T10:08:43.298Z,555
2018-11-05T10:09:54.036Z,500
2018-11-05T10:11:04.323Z,485
2018-11-05T10:12:14.098Z,490
2018-11-05T10:13:23.542Z,515
2018-11-05T10:14:33.490Z,740
2018-11-05T10:15:43.191Z,705
2018-11-05T10:16:53.171Z,825
2018-11-05T10:18:02.876Z,900
2018-11-05T10:19:12.584Z,985
2018-11-05T10:20:22.259Z,1065
2018-11-05T10:21:32.212Z,1050
2018-11-05T10:22:41.904Z,1000
2018-11-05T10:23:51.202Z,765
2018-11-05T10:25:02.133Z,900
2018-11-05T10:26:12.410Z,1090
2018-11-05T10:27:21.845Z,1160
2018-11-05T10:28:31.294Z,1180
2018-11-05T10:29:40.749Z,975
2018-11-05T10:30:50.439Z,1145
2018-11-05T10:32:00.411Z,1160
2018-11-05T10:33:10.876Z,1200
2018-11-05T10:34:20.654Z,1215
2018-11-05T10:35:30.352Z,965
2018-11-05T10:36:39.810Z,1100
2018-11-05T10:37:49.778Z,1055
2018-11-05T10:38:58.966Z,800
2018-11-05T10:40:08.933Z,695
2018-11-05T10:41:18.913Z,695
2018-11-05T10:42:28.868Z,820
2018-11-05T10:43:38.570Z,630
2018-11-05T10:44:48.271Z,550
2018-11-05T10:45:58.272Z,485
2018-11-05T10:47:07.974Z,475
2018-11-05T10:48:17.963Z,480
2018-11-05T10:49:27.695Z,495
2018-11-05T10:50:37.988Z,560
2018-11-05T10:51:48.070Z,780
2018-11-05T10:52:58.065Z,715
2018-11-05T10:54:07.512Z,1000
2018-11-05T10:55:17.215Z,945
2018-11-05T10:56:27.166Z,1245
2018-11-05T10:57:37.212Z,1350
2018-11-05T10:58:47.182Z,1445
2018-11-05T10:59:56.884Z,1375
2018-11-05T11:01:06.579Z,1260
2018-11-05T11:02:16.550Z,1185
2018-11-05T11:03:25.720Z,960
2018-11-05T11:04:35.883Z,770
2018-11-05T11:05:45.313Z,725
2018-11-05T11:06:55.012Z,665
2018-11-05T11:08:04.982Z,600
2018-11-05T11:09:14.932Z,565
2018-11-05T11:10:24.886Z,635
2018-11-05T11:11:34.615Z,675
2018-11-05T11:12:44.272Z,710
2018-11-05T11:13:54.027Z,750
2018-11-05T11:15:03.293Z,805
2018-11-05T11:16:12.760Z,700
2018-11-05T11:17:22.720Z,670
2018-11-05T11:18:32.689Z,700
2018-11-05T11:19:42.133Z,660
2018-11-05T11:20:51.851Z,625
2018-11-05T11:22:02.129Z,610
2018-11-05T11:23:11.979Z,600
2018-11-05T11:24:21.731Z,590
2018-11-05T11:25:31.705Z,570
2018-11-05T11:26:41.659Z,560
2018-11-05T11:27:51.866Z,545
2018-11-05T11:29:02.683Z,515
2018-11-05T11:30:12.526Z,505
2018-11-05T11:31:21.728Z,490
2018-11-05T11:32:31.651Z,485
2018-11-05T11:33:41.619Z,475
2018-11-05T11:34:51.606Z,465
2018-11-05T11:36:01.610Z,460
2018-11-05T11:37:11.515Z,455
2018-11-05T11:38:20.993Z,450
2018-11-05T11:39:30.685Z,450
2018-11-05T11:40:40.721Z,450
2018-11-05T11:41:50.169Z,465
2018-11-05T11:43:00.130Z,465
2018-11-05T11:44:09.841Z,475
2018-11-05T11:45:19.447Z,500
2018-11-05T11:46:29.143Z,510
2018-11-05T11:47:39.108Z,525
2018-11-05T11:48:48.306Z,565
2018-11-05T11:49:58.000Z,560
2018-11-05T11:51:07.955Z,560
2018-11-05T11:52:17.663Z,600
2018-11-05T11:53:27.626Z,640
2018-11-05T11:54:37.527Z,615
2018-11-05T11:55:46.988Z,655
2018-11-05T11:56:56.743Z,630
2018-11-05T11:58:06.732Z,610
2018-11-05T11:59:16.676Z,635
2018-11-05T12:00:26.489Z,665
2018-11-05T12:01:35.999Z,665
2018-11-05T12:02:45.984Z,630
2018-11-05T12:03:55.469Z,620
2018-11-05T12:05:05.790Z,630
2018-11-05T12:06:15.875Z,680
2018-11-05T12:07:25.593Z,660
2018-11-05T12:08:35.595Z,705
2018-11-05T12:09:45.553Z,715
2018-11-05T12:10:55.248Z,705
2018-11-05T12:12:04.721Z,660
2018-11-05T12:13:14.157Z,740
2018-11-05T12:14:24.239Z,910
2018-11-05T12:15:33.757Z,995
2018-11-05T12:16:43.469Z,1070
2018-11-05T12:17:52.922Z,1230
2018-11-05T12:19:02.385Z,1555
2018-11-05T12:20:12.093Z,1570
2018-11-05T12:21:22.050Z,1760
2018-11-05T12:22:31.748Z,1730
2018-11-05T12:23:41.436Z,1695
2018-11-05T12:24:51.670Z,1515
2018-11-05T12:26:01.185Z,1295
2018-11-05T12:27:10.902Z,1410
2018-11-05T12:28:20.594Z,1480
2018-11-05T12:29:30.631Z,1740
2018-11-05T12:30:40.331Z,1715
2018-11-05T12:31:49.784Z,1750
2018-11-05T12:32:59.760Z,1735
2018-11-05T12:34:09.726Z,1710
2018-11-05T12:35:19.187Z,1505
2018-11-05T12:36:29.151Z,1165
2018-11-05T12:37:38.601Z,1040
2018-11-05T12:38:49.059Z,1220
2018-11-05T12:39:59.055Z,1270
2018-11-05T12:41:09.106Z,1175
2018-11-05T12:42:19.069Z,1095
2018-11-05T12:43:28.270Z,1295
2018-11-05T12:44:38.441Z,840
2018-11-05T12:45:48.217Z,495
2018-11-05T12:46:57.934Z,505
2018-11-05T12:48:07.138Z,560
2018-11-05T12:49:17.346Z,405
2018-11-05T12:50:27.465Z,385
2018-11-05T12:51:37.452Z,365
2018-11-05T12:52:47.435Z,375
2018-11-05T12:53:57.427Z,355
2018-11-05T12:55:06.861Z,370
2018-11-05T12:56:16.834Z,450
2018-11-05T12:57:26.295Z,610
2018-11-05T12:58:36.266Z,945
2018-11-05T12:59:46.231Z,1060
2018-11-05T13:00:56.347Z,1025
2018-11-05T13:02:06.291Z,900
2018-11-05T13:03:16.016Z,790
2018-11-05T13:04:26.223Z,840
2018-11-05T13:05:35.941Z,530
2018-11-05T13:06:45.773Z,425
2018-11-05T13:07:55.466Z,400
2018-11-05T13:09:05.177Z,410
2018-11-05T13:10:15.158Z,420
2018-11-05T13:11:24.884Z,430
2018-11-05T13:12:34.306Z,505
2018-11-05T13:13:44.259Z,470
2018-11-05T13:14:53.684Z,510
2018-11-05T13:16:02.860Z,470
2018-11-05T13:17:12.574Z,535
2018-11-05T13:18:22.042Z,595
2018-11-05T13:19:31.757Z,770
2018-11-05T13:20:41.463Z,590
2018-11-05T13:21:51.168Z,870
2018-11-05T13:23:00.939Z,1040
2018-11-05T13:24:11.101Z,1025
2018-11-05T13:25:21.089Z,875
2018-11-05T13:26:31.062Z,675
2018-11-05T13:27:40.498Z,445
2018-11-05T13:28:49.694Z,440
2018-11-05T13:29:59.482Z,505
2018-11-05T13:31:09.185Z,525
2018-11-05T13:32:18.915Z,575
2018-11-05T13:33:28.363Z,760
2018-11-05T13:34:38.059Z,580
2018-11-05T13:35:48.029Z,570
2018-11-05T13:36:58.752Z,520
2018-11-05T13:38:13.084Z,435
2018-11-05T13:39:23.338Z,375
2018-11-05T13:40:32.529Z,375
2018-11-05T13:41:42.486Z,325
2018-11-05T13:42:51.938Z,295
2018-11-05T13:44:01.643Z,290
2018-11-05T13:45:11.724Z,280
2018-11-05T13:46:23.450Z,280
2018-11-05T13:47:37.745Z,270
2018-11-05T13:48:52.847Z,260
2018-11-05T13:50:04.632Z,270
2018-11-05T13:51:14.663Z,265
2018-11-05T13:52:25.302Z,255
2018-11-05T13:53:35.309Z,260
2018-11-05T13:54:47.140Z,260
2018-11-05T13:55:57.471Z,280
2018-11-05T13:57:07.501Z,295
2018-11-05T13:58:17.311Z,275
2018-11-05T13:59:27.283Z,280
2018-11-05T14:00:37.262Z,305
2018-11-05T14:01:46.961Z,305
2018-11-05T14:02:56.738Z,290
2018-11-05T14:04:06.703Z,285
2018-11-05T14:05:15.903Z,325
2018-11-05T14:06:25.606Z,320
2018-11-05T14:07:34.821Z,300
2018-11-05T14:08:44.741Z,270
2018-11-05T14:09:54.278Z,255
2018-11-05T14:11:04.248Z,255
2018-11-05T14:12:14.036Z,235
2018-11-05T14:13:23.741Z,230
2018-11-05T14:14:33.435Z,235
2018-11-05T14:15:42.876Z,230
2018-11-05T14:16:52.576Z,220
2018-11-05T14:18:02.558Z,220
2018-11-05T14:19:12.503Z,220
2018-11-05T14:20:22.201Z,215
2018-11-05T14:21:31.642Z,215
2018-11-05T14:22:40.560Z,210
2018-11-05T14:23:49.998Z,210
2018-11-05T14:24:59.961Z,205
2018-11-05T14:26:10.110Z,205
2018-11-05T14:27:20.043Z,200
2018-11-05T14:28:31.939Z,195
2018-11-05T14:29:45.902Z,190
2018-11-05T14:30:55.725Z,190
2018-11-05T14:32:05.591Z,185
2018-11-05T14:33:15.316Z,180
2018-11-05T14:34:25.071Z,180
2018-11-05T14:35:34.779Z,175
2018-11-05T14:36:45.071Z,170
2018-11-05T14:37:54.364Z,170
2018-11-05T14:39:04.053Z,170
2018-11-05T14:40:14.073Z,165
2018-11-05T14:41:23.791Z,165
2018-11-05T14:42:33.698Z,160
2018-11-05T14:43:44.506Z,155
2018-11-05T14:44:53.749Z,150
2018-11-05T14:46:03.712Z,140
2018-11-05T14:47:13.673Z,135
2018-11-05T14:48:23.597Z,135
2018-11-05T14:49:33.557Z,130
2018-11-05T14:50:44.027Z,125
2018-11-05T14:51:53.495Z,120
2018-11-05T14:53:03.197Z,115
2018-11-05T14:54:11.860Z,110
2018-11-05T14:55:21.841Z,110
2018-11-05T14:56:31.794Z,105
2018-11-05T14:57:41.760Z,100
2018-11-05T14:58:51.717Z,95
2018-11-05T15:00:01.431Z,90
2018-11-05T15:01:11.116Z,85
2018-11-05T15:02:20.837Z,80
2018-11-05T15:03:30.817Z,80
2018-11-05T15:04:40.588Z,75
2018-11-05T15:05:50.037Z,70
2018-11-05T15:06:59.978Z,65
2018-11-05T15:08:09.672Z,60
2018-11-05T15:09:18.865Z,60
2018-11-05T15:10:28.808Z,55
2018-11-05T15:11:38.254Z,50
2018-11-05T15:12:47.705Z,45
2018-11-05T15:13:57.911Z,45
2018-11-05T15:15:07.599Z,40
2018-11-05T15:16:17.542Z,35
2018-11-05T15:17:27.507Z,30
2018-11-05T15:18:38.331Z,30
2018-11-05T15:19:52.048Z,25
2018-11-05T15:21:02.301Z,25
2018-11-05T15:22:12.293Z,25
2018-11-05T15:23:21.992Z,20
2018-11-05T15:24:31.943Z,20
2018-11-05T15:25:42.012Z,20
2018-11-05T15:26:52.942Z,15
2018-11-05T15:28:02.966Z,15
2018-11-05T15:29:15.628Z,10
2018-11-05T15:30:25.631Z,10
2018-11-05T15:31:35.342Z,10
2018-11-05T15:32:45.285Z,10
2018-11-05T15:33:55.805Z,10
2018-11-05T15:35:05.845Z,5
2018-11-05T15:36:15.821Z,5
2018-11-05T15:37:25.531Z,5
2018-11-05T15:38:35.226Z,5
2018-11-05T15:39:44.939Z,5
2018-11-05T15:40:54.402Z,5
2018-11-05T15:42:04.129Z,0
2018-11-05T15:43:14.102Z,0
2018-11-05T15:44:23.538Z,0
2018-11-05T15:45:33.236Z,0
2018-11-05T15:46:43.196Z,0
2018-11-05T15:47:52.900Z,0
2018-11-05T15:49:02.863Z,0
2018-11-05T15:50:12.824Z,0
2018-11-05T15:51:24.682Z,0
2018-11-05T15:52:36.328Z,0
2018-11-05T15:53:47.585Z,0
2018-11-05T15:54:57.301Z,0
2018-11-05T15:56:07.309Z,0
2018-11-05T15:57:16.749Z,0
2018-11-05T15:58:26.459Z,0
2018-11-05T15:59:36.140Z,0
2018-11-05T16:00:46.124Z,0
2018-11-05T16:01:55.837Z,0
2018-11-05T16:03:05.281Z,0
2018-11-05T16:04:14.849Z,0
2018-11-05T16:05:24.825Z,0
2018-11-05T16:06:34.793Z,0
2018-11-05T16:07:44.291Z,0
2018-11-05T16:08:54.018Z,0
2018-11-05T16:10:03.466Z,0
2018-11-05T16:11:13.168Z,0
2018-11-05T16:12:22.866Z,0
2018-11-05T16:13:32.574Z,0
2018-11-05T16:14:41.778Z,0
2018-11-05T16:15:51.493Z,0
2018-11-05T16:17:01.204Z,0
2018-11-05T16:18:10.645Z,0
2018-11-05T16:19:20.619Z,0
2018-11-05T16:20:30.581Z,0
2018-11-05T16:21:40.543Z,0
2018-11-05T16:22:50.262Z,0
2018-11-05T16:24:00.416Z,0
2018-11-05T16:25:09.868Z,0
2018-11-05T16:26:19.834Z,0
2018-11-05T16:27:29.525Z,0
2018-11-05T16:28:38.966Z,0
2018-11-05T16:29:48.424Z,0
2018-11-05T16:30:58.374Z,0
2018-11-05T16:32:08.450Z,0
2018-11-05T16:33:18.449Z,0